Time;durP1;ratioP1;P1;durP2;ratioP2;P2;SDS_P1;SDS_P2;PMS_P1;PMS_P2;Temp;Humidity;BMP_temperature;BMP_pressure;BME280_temperature;BME280_humidity;BME280_pressure;Samples;Min_cycle;Max_cycle;Signal;HPM_P1;HPM_P2
2023/01/04 00:00:28;;;;;;;9.10;3.80;;;;;;;4.90;100.00;101619.34;7388512;19;20395;-66
2023/01/04 00:02:57;;;;;;;9.47;2.80;;;;;;;4.89;100.00;101615.00;7390261;19;20925;-65
2023/01/04 00:05:29;;;;;;;12.13;4.10;;;;;;;4.92;100.00;101614.34;7387629;19;20419;-66
2023/01/04 00:08:00;;;;;;;6.57;2.80;;;;;;;4.91;100.00;101615.13;7390290;19;20375;-66
2023/01/04 00:10:30;;;;;;;6.83;2.80;;;;;;;4.93;100.00;101617.00;7388933;19;20780;-66
2023/01/04 00:12:59;;;;;;;7.57;3.60;;;;;;;4.99;100.00;101617.47;7390527;19;20772;-66
2023/01/04 00:15:29;;;;;;;9.83;3.60;;;;;;;5.10;100.00;101614.88;7387004;19;20415;-67
2023/01/04 00:17:58;;;;;;;6.50;2.63;;;;;;;5.13;100.00;101600.66;7389618;19;20402;-66
2023/01/04 00:20:30;;;;;;;9.57;3.60;;;;;;;5.18;100.00;101601.00;7386430;19;20387;-67
2023/01/04 00:23:00;;;;;;;10.03;4.40;;;;;;;5.21;100.00;101603.81;7390252;19;20396;-65
2023/01/04 00:25:29;;;;;;;5.00;2.63;;;;;;;5.22;100.00;101604.69;7387083;19;20458;-66
2023/01/04 00:27:59;;;;;;;4.03;2.40;;;;;;;5.19;100.00;101615.59;7390291;19;20403;-65
2023/01/04 00:30:28;;;;;;;6.30;2.77;;;;;;;5.25;100.00;101615.19;7387731;19;20388;-65
2023/01/04 00:32:58;;;;;;;5.23;2.30;;;;;;;5.26;100.00;101612.75;7389843;19;20390;-66
2023/01/04 00:35:30;;;;;;;8.30;2.50;;;;;;;5.30;100.00;101612.97;7386372;19;20419;-65
2023/01/04 00:38:14;;;;;;;4.77;2.33;;;;;;;5.30;100.00;101613.88;7388961;19;20404;-66
2023/01/04 00:40:44;;;;;;;6.90;2.20;;;;;;;5.25;100.00;101613.53;7387001;19;20439;-65
2023/01/04 00:43:13;;;;;;;7.33;1.40;;;;;;;5.31;100.00;101605.41;7389672;19;20388;-66
2023/01/04 00:45:44;;;;;;;6.00;1.90;;;;;;;5.32;100.00;101596.09;7380501;19;20941;-66
2023/01/04 00:48:14;;;;;;;4.13;2.00;;;;;;;5.31;100.00;101594.28;7389871;19;20391;-65
2023/01/04 00:50:48;;;;;;;6.73;1.97;;;;;;;5.39;100.00;101580.41;7387666;19;20827;-65
2023/01/04 00:53:18;;;;;;;5.77;2.20;;;;;;;5.40;100.00;101585.63;7389916;19;20394;-65
2023/01/04 00:55:48;;;;;;;5.87;2.20;;;;;;;5.42;100.00;101582.31;7386899;19;20411;-66
2023/01/04 00:58:18;;;;;;;5.97;2.03;;;;;;;5.48;100.00;101572.53;7390259;19;20399;-66
2023/01/04 01:00:47;;;;;;;4.37;1.73;;;;;;;5.48;100.00;101581.09;7389726;19;21250;-65
2023/01/04 01:03:17;;;;;;;8.80;1.83;;;;;;;5.46;100.00;101580.09;7389281;19;20389;-66
2023/01/04 01:05:49;;;;;;;5.43;2.10;;;;;;;5.48;100.00;101570.84;7385005;19;20414;-66
2023/01/04 01:08:28;;;;;;;4.30;1.80;;;;;;;5.49;100.00;101564.97;7389353;19;20382;-66
2023/01/04 01:10:57;;;;;;;6.20;1.60;;;;;;;5.52;100.00;101554.97;7386001;19;20404;-66
2023/01/04 01:13:27;;;;;;;7.53;1.87;;;;;;;5.56;100.00;101560.28;7389028;19;20387;-66
2023/01/04 01:15:56;;;;;;;11.43;1.80;;;;;;;5.65;100.00;101545.66;7386670;19;20402;-65
2023/01/04 01:18:26;;;;;;;6.20;2.83;;;;;;;5.62;100.00;101536.06;7387961;19;20379;-66
2023/01/04 01:20:58;;;;;;;2.67;1.30;;;;;;;5.67;100.00;101539.88;7385564;19;20399;-66
2023/01/04 01:23:28;;;;;;;3.50;0.90;;;;;;;5.71;100.00;101556.34;7388871;19;20399;-66
2023/01/04 01:26:02;;;;;;;3.80;1.77;;;;;;;5.73;100.00;101554.78;7386536;19;20427;-65
2023/01/04 01:28:32;;;;;;;4.73;1.77;;;;;;;5.79;100.00;101538.97;7388980;19;20411;-65
2023/01/04 01:31:01;;;;;;;3.87;1.40;;;;;;;5.76;100.00;101544.78;7384310;19;20446;-65
2023/01/04 01:33:38;;;;;;;3.90;1.90;;;;;;;5.81;100.00;101538.28;7395885;19;20451;-65
2023/01/04 01:36:11;;;;;;;8.43;1.83;;;;;;;5.81;100.00;101534.88;7392607;19;20410;-67
2023/01/04 01:38:41;;;;;;;2.30;1.07;;;;;;;5.88;100.00;101524.28;7394680;19;20964;-66
2023/01/04 01:41:24;;;;;;;10.00;1.87;;;;;;;6.05;100.00;101520.41;7392870;19;20418;-66
2023/01/04 01:43:56;;;;;;;6.43;1.67;;;;;;;6.07;100.00;101508.59;7395045;19;20407;-65
2023/01/04 01:46:29;;;;;;;8.10;2.47;;;;;;;6.10;100.00;101519.88;7391649;19;20752;-66
2023/01/04 01:49:02;;;;;;;4.80;1.53;;;;;;;6.07;100.00;101507.72;7393392;19;20937;-65
2023/01/04 01:51:34;;;;;;;3.90;1.60;;;;;;;6.15;100.00;101498.03;7390742;19;20768;-65
2023/01/04 01:54:07;;;;;;;4.90;1.33;;;;;;;6.15;100.00;101508.28;7394514;19;20417;-64
2023/01/04 01:56:38;;;;;;;10.57;1.97;;;;;;;6.12;100.00;101497.78;7393452;19;20414;-65
2023/01/04 01:59:08;;;;;;;2.33;1.13;;;;;;;6.17;100.00;101509.28;7396732;19;20411;-66
2023/01/04 02:01:38;;;;;;;2.13;0.97;;;;;;;6.21;100.00;101488.22;7392700;19;20421;-65
2023/01/04 02:04:09;;;;;;;4.03;1.47;;;;;;;6.22;100.00;101484.88;7387011;19;21030;-65
2023/01/04 02:06:47;;;;;;;6.60;1.23;;;;;;;6.25;100.00;101490.19;7394693;19;20451;-65
2023/01/04 02:09:17;;;;;;;5.37;1.40;;;;;;;6.37;100.00;101476.47;7393689;19;20748;-65
2023/01/04 02:11:47;;;;;;;4.77;1.37;;;;;;;6.44;100.00;101491.50;7393542;19;20456;-66
2023/01/04 02:14:30;;;;;;;5.80;1.33;;;;;;;6.45;100.00;101473.66;7393652;19;20444;-66
2023/01/04 02:17:07;;;;;;;3.00;1.40;;;;;;;6.44;100.00;101460.72;7391787;19;20447;-66
2023/01/04 02:19:55;;;;;;;10.43;1.90;;;;;;;6.38;100.00;101456.09;7392269;19;20390;-66
2023/01/04 02:23:07;;;;;;;3.63;1.03;;;;;;;6.33;100.00;101445.50;7394512;19;20471;-65
2023/01/04 02:26:02;;;;;;;3.07;1.60;;;;;;;6.43;100.00;101429.09;7390294;19;20408;-66
2023/01/04 02:28:41;;;;;;;2.80;1.10;;;;;;;6.41;100.00;101427.22;7394542;19;20388;-66
2023/01/04 02:31:28;;;;;;;6.43;0.93;;;;;;;6.34;100.00;101423.31;7391015;19;20438;-66
2023/01/04 02:34:04;;;;;;;2.67;1.00;;;;;;;6.33;100.00;101408.72;7393514;19;20529;-66
2023/01/04 02:36:37;;;;;;;6.30;1.57;;;;;;;6.41;100.00;101388.75;7391746;19;20411;-66
2023/01/04 02:39:15;;;;;;;4.70;1.67;;;;;;;6.46;100.00;101406.22;7391972;19;20383;-65
2023/01/04 02:41:49;;;;;;;2.83;1.30;;;;;;;6.44;100.00;101378.69;7391230;19;20985;-65
2023/01/04 02:47:07;;;;;;;2.90;0.90;;;;;;;6.43;100.00;101361.53;7389769;19;20438;-66
2023/01/04 02:52:19;;;;;;;2.53;0.80;;;;;;;6.37;100.00;101335.50;7391009;19;20442;-66
2023/01/04 02:54:51;;;;;;;2.53;1.00;;;;;;;6.38;100.00;101324.44;7394672;19;20766;-65
2023/01/04 02:57:29;;;;;;;6.33;1.60;;;;;;;6.40;100.00;101320.34;7390979;19;20421;-65
2023/01/04 03:00:12;;;;;;;4.03;1.10;;;;;;;6.35;100.00;101318.34;7390950;19;20460;-66
2023/01/04 03:08:35;;;;;;;3.27;1.20;;;;;;;6.31;100.00;101285.59;7393249;19;20372;-65
2023/01/04 03:12:30;;;;;;;18.00;2.87;;;;;;;6.28;100.00;101269.13;7389772;19;20477;-65
2023/01/04 03:13:56;;;;;;;4.60;1.40;;;;;;;6.22;100.00;101256.78;7392107;19;20399;-66
2023/01/04 03:16:27;;;;;;;3.60;1.53;;;;;;;6.17;100.00;101247.91;7389191;19;20412;-66
2023/01/04 03:19:03;;;;;;;2.33;0.90;;;;;;;6.10;100.00;101245.72;7391253;19;20393;-65
2023/01/04 03:21:34;;;;;;;2.37;1.13;;;;;;;6.05;100.00;101237.72;7390274;19;20785;-65
2023/01/04 03:43:08;;;;;;;3.03;1.00;;;;;;;6.02;100.00;101176.91;7391247;19;20417;-66
2023/01/04 03:49:00;;;;;;;2.60;0.73;;;;;;;5.80;100.00;101131.03;7387803;19;20396;-66
2023/01/04 03:51:36;;;;;;;7.77;1.80;;;;;;;5.77;100.00;101111.22;7386452;19;20412;-66
2023/01/04 03:54:08;;;;;;;6.97;2.43;;;;;;;5.74;100.00;101117.81;7385790;19;20416;-66
2023/01/04 03:56:40;;;;;;;7.40;2.23;;;;;;;5.73;100.00;101108.31;7386321;19;20429;-65
2023/01/04 03:59:11;;;;;;;3.57;1.37;;;;;;;5.60;100.00;101120.31;7387382;19;20948;-65
2023/01/04 04:01:41;;;;;;;7.70;1.90;;;;;;;5.53;100.00;101112.97;7386321;19;20420;-66
2023/01/04 04:09:38;;;;;;;5.80;1.40;;;;;;;5.34;100.00;101098.94;7388632;19;20403;-65
2023/01/04 04:12:08;;;;;;;2.97;1.17;;;;;;;5.26;100.00;101080.53;7385712;19;20411;-66
2023/01/04 04:14:38;;;;;;;3.20;1.63;;;;;;;5.33;100.00;101066.47;7392336;19;21268;-65
2023/01/04 04:17:07;;;;;;;4.00;1.50;;;;;;;5.25;100.00;101052.25;7386710;19;20415;-65
2023/01/04 04:19:37;;;;;;;5.47;1.23;;;;;;;5.21;100.00;101038.38;7387775;19;20427;-66
2023/01/04 04:22:09;;;;;;;6.07;2.10;;;;;;;5.27;100.00;101030.22;7386094;19;20426;-65
2023/01/04 04:24:38;;;;;;;2.20;1.10;;;;;;;5.13;100.00;101032.72;7389286;19;20797;-66
2023/01/04 04:27:07;;;;;;;3.07;1.70;;;;;;;5.18;100.00;100993.78;7386533;19;20430;-66
2023/01/04 04:29:37;;;;;;;2.93;0.90;;;;;;;5.11;100.00;100982.25;7392870;19;20399;-65
2023/01/04 04:32:07;;;;;;;5.03;1.73;;;;;;;5.10;100.00;100955.81;7387019;19;20411;-65
2023/01/04 04:34:36;;;;;;;4.43;1.57;;;;;;;5.09;100.00;100955.69;7388584;19;20841;-65
2023/01/04 04:37:08;;;;;;;8.03;0.90;;;;;;;5.07;100.00;100936.81;7386240;19;20420;-66
2023/01/04 04:39:38;;;;;;;4.10;1.23;;;;;;;5.06;100.00;100911.97;7388574;19;20410;-66
2023/01/04 04:42:05;;;;;;;7.20;1.77;;;;;;;5.07;100.00;100893.31;7386104;19;20978;-66
2023/01/04 04:44:35;;;;;;;4.80;1.43;;;;;;;4.95;100.00;100872.91;7389121;19;20961;-66
2023/01/04 04:47:05;;;;;;;5.00;1.57;;;;;;;4.98;100.00;100845.88;7386773;19;20411;-65
2023/01/04 04:49:34;;;;;;;6.50;1.77;;;;;;;4.98;100.00;100830.53;7389576;19;20387;-65
2023/01/04 04:52:04;;;;;;;4.40;1.87;;;;;;;5.00;100.00;100826.44;7387256;19;20437;-66
2023/01/04 04:54:36;;;;;;;9.13;1.93;;;;;;;5.00;100.00;100787.16;7388288;19;20848;-66
2023/01/04 04:57:05;;;;;;;5.13;1.77;;;;;;;4.96;100.00;100765.63;7386534;19;20421;-66
2023/01/04 04:59:35;;;;;;;3.83;2.03;;;;;;;4.99;100.00;100745.34;7388734;19;20388;-65
2023/01/04 05:02:05;;;;;;;6.10;1.77;;;;;;;4.94;100.00;100749.31;7386142;19;20419;-66
2023/01/04 05:04:35;;;;;;;4.07;1.70;;;;;;;4.89;100.00;100714.88;7388810;19;20448;-65
2023/01/04 05:07:04;;;;;;;3.60;2.00;;;;;;;4.90;100.00;100701.31;7393593;19;20786;-66
2023/01/04 05:09:43;;;;;;;8.00;1.77;;;;;;;4.94;100.00;100693.06;7396903;19;20391;-65
2023/01/04 05:14:55;;;;;;;3.80;1.70;;;;;;;4.94;100.00;100687.94;7394926;19;20415;-66
2023/01/04 05:17:25;;;;;;;3.30;2.00;;;;;;;4.95;100.00;100674.38;7393793;19;20410;-65
2023/01/04 05:19:54;;;;;;;3.70;1.57;;;;;;;5.03;100.00;100673.97;7395120;19;20383;-66
2023/01/04 05:22:24;;;;;;;5.23;1.50;;;;;;;5.04;100.00;100673.16;7393866;19;21005;-65
2023/01/04 05:24:56;;;;;;;4.40;1.83;;;;;;;5.00;100.00;100660.19;7394821;19;20438;-65
2023/01/04 05:27:25;;;;;;;2.70;1.70;;;;;;;5.06;100.00;100646.00;7393700;19;20442;-66
2023/01/04 05:32:36;;;;;;;4.07;1.67;;;;;;;5.11;100.00;100619.94;7393489;19;20425;-68
2023/01/04 05:35:07;;;;;;;2.80;1.10;;;;;;;5.15;100.00;100623.56;7394256;19;20423;-66
2023/01/04 05:37:36;;;;;;;3.90;1.90;;;;;;;5.16;100.00;100601.41;7393503;19;20430;-67
2023/01/04 05:40:09;;;;;;;2.20;1.00;;;;;;;5.21;100.00;100594.91;7394727;19;20398;-66
2023/01/04 05:42:38;;;;;;;6.80;1.97;;;;;;;5.22;100.00;100572.00;7393323;19;20434;-67
2023/01/04 05:45:09;;;;;;;5.37;2.13;;;;;;;5.24;100.00;100564.41;7393738;19;20411;-67
2023/01/04 05:47:38;;;;;;;1.53;0.93;;;;;;;5.29;100.00;100564.69;7392782;19;20407;-66
2023/01/04 05:50:09;;;;;;;4.00;1.30;;;;;;;5.38;100.00;100557.53;7395119;19;20388;-67
2023/01/04 05:52:39;;;;;;;3.13;1.30;;;;;;;5.40;100.00;100553.41;7392297;19;20438;-67
2023/01/04 05:55:11;;;;;;;1.30;0.60;;;;;;;5.41;100.00;100557.75;7393674;19;20428;-67
2023/01/04 05:57:40;;;;;;;1.60;0.77;;;;;;;5.41;100.00;100560.31;7392724;19;20403;-68
2023/01/04 06:00:14;;;;;;;16.30;1.20;;;;;;;5.49;100.00;100555.66;7393927;19;20391;-67
2023/01/04 06:02:44;;;;;;;5.80;1.33;;;;;;;5.49;100.00;100555.66;7394100;19;20407;-68
2023/01/04 06:05:14;;;;;;;1.97;1.00;;;;;;;5.55;100.00;100553.44;7393503;19;20423;-67
2023/01/04 06:07:44;;;;;;;5.30;1.50;;;;;;;5.58;100.00;100550.19;7395633;19;20421;-68
2023/01/04 06:10:16;;;;;;;4.73;1.57;;;;;;;5.56;100.00;100551.75;7400672;19;20401;-67
2023/01/04 06:12:45;;;;;;;3.17;1.37;;;;;;;5.50;100.00;100563.38;7404312;19;20954;-67
2023/01/04 06:15:15;;;;;;;4.40;1.53;;;;;;;5.49;100.00;100560.75;7401896;19;20427;-67
2023/01/04 06:17:44;;;;;;;2.67;1.60;;;;;;;5.44;100.00;100562.16;7400865;19;20429;-67
2023/01/04 06:20:14;;;;;;;2.30;1.30;;;;;;;5.46;100.00;100558.91;7402966;19;20392;-67
2023/01/04 06:22:44;;;;;;;5.30;1.13;;;;;;;5.51;100.00;100552.38;7403112;19;20435;-66
2023/01/04 06:25:16;;;;;;;2.23;0.80;;;;;;;5.49;100.00;100553.94;7403451;19;20989;-67
2023/01/04 06:27:46;;;;;;;1.93;1.20;;;;;;;5.54;100.00;100549.13;7402365;19;20441;-67
2023/01/04 06:30:15;;;;;;;2.33;1.20;;;;;;;5.58;100.00;100545.06;7402098;19;20411;-67
2023/01/04 06:32:44;;;;;;;1.90;1.13;;;;;;;5.58;100.00;100530.56;7401734;19;20415;-66
2023/01/04 06:35:14;;;;;;;3.93;1.70;;;;;;;5.63;100.00;100483.09;7400527;19;20419;-67
2023/01/04 06:37:43;;;;;;;3.00;1.23;;;;;;;5.71;100.00;100449.38;7396235;19;20395;-66
2023/01/04 06:40:16;;;;;;;2.13;1.20;;;;;;;5.72;100.00;100428.09;7394993;19;20388;-66
2023/01/04 06:42:48;;;;;;;2.00;1.00;;;;;;;5.73;100.00;100406.81;7397005;19;20422;-66
2023/01/04 06:45:18;;;;;;;3.77;1.33;;;;;;;5.73;100.00;100387.22;7392124;19;20430;-64
2023/01/04 06:47:47;;;;;;;2.03;1.33;;;;;;;5.78;100.00;100370.44;7394892;19;20391;-66
2023/01/04 06:50:17;;;;;;;4.90;1.63;;;;;;;5.83;100.00;100355.31;7392781;19;20766;-65
2023/01/04 06:52:46;;;;;;;3.43;1.40;;;;;;;5.86;100.00;100331.56;7393883;19;20431;-65
2023/01/04 06:55:19;;;;;;;5.03;2.00;;;;;;;5.93;100.00;100315.72;7395094;19;20421;-65
2023/01/04 06:57:48;;;;;;;4.47;2.20;;;;;;;5.92;100.00;100296.03;7393012;19;20960;-65
2023/01/04 07:00:22;;;;;;;1.67;1.00;;;;;;;5.98;100.00;100269.88;7393416;19;20434;-65
2023/01/04 07:02:52;;;;;;;2.97;1.57;;;;;;;5.98;100.00;100255.41;7392677;19;20389;-65
2023/01/04 07:05:41;;;;;;;4.73;1.90;;;;;;;6.00;100.00;100228.19;7388659;19;21287;-65
2023/01/04 07:08:11;;;;;;;4.77;1.50;;;;;;;6.01;100.00;100231.63;7392815;19;20376;-66
2023/01/04 07:10:44;;;;;;;4.13;1.40;;;;;;;6.10;100.00;100206.50;7390728;19;20432;-65
2023/01/04 07:13:13;;;;;;;3.07;2.07;;;;;;;6.11;100.00;100200.63;7392833;19;20467;-65
2023/01/04 07:15:43;;;;;;;2.33;1.40;;;;;;;6.16;100.00;100173.53;7388610;19;20397;-65
2023/01/04 07:18:13;;;;;;;1.73;0.93;;;;;;;6.17;100.00;100170.19;7392500;19;20393;-65
2023/01/04 07:20:42;;;;;;;4.00;1.83;;;;;;;6.21;100.00;100154.13;7389338;19;20775;-65
2023/01/04 07:23:12;;;;;;;3.00;2.17;;;;;;;6.28;100.00;100122.03;7392679;19;21257;-65
2023/01/04 07:25:44;;;;;;;1.40;0.83;;;;;;;6.26;100.00;100118.50;7388908;19;20411;-65
2023/01/04 07:29:13;;;;;;;3.00;1.53;;;;;;;6.29;100.00;100128.00;7391905;19;20380;-65
2023/01/04 07:31:06;;;;;;;1.70;1.00;;;;;;;6.29;100.00;100110.97;7387498;19;20431;-65
2023/01/04 07:33:35;;;;;;;5.73;2.10;;;;;;;6.34;100.00;100109.53;7392326;19;20395;-64
2023/01/04 07:36:06;;;;;;;3.27;1.47;;;;;;;6.37;100.00;100100.22;7389492;19;20752;-65
2023/01/04 07:38:36;;;;;;;2.80;1.63;;;;;;;6.41;100.00;100091.88;7392119;19;20392;-64
2023/01/04 07:41:08;;;;;;;2.47;1.73;;;;;;;6.47;100.00;100080.22;7387932;19;20428;-65
2023/01/04 07:43:37;;;;;;;2.10;1.60;;;;;;;6.50;100.00;100063.25;7391927;19;20394;-65
2023/01/04 07:46:07;;;;;;;5.43;1.63;;;;;;;6.54;100.00;100066.03;7389005;19;20420;-66
2023/01/04 07:48:36;;;;;;;3.03;1.93;;;;;;;6.53;100.00;100045.44;7391937;19;20772;-66
2023/01/04 07:51:06;;;;;;;5.33;1.67;;;;;;;6.56;100.00;100025.94;7388183;19;20435;-65
2023/01/04 07:53:36;;;;;;;2.73;1.57;;;;;;;6.61;100.00;100026.16;7391554;19;20390;-66
2023/01/04 07:56:09;;;;;;;7.40;3.23;;;;;;;6.66;100.00;99985.38;7389133;19;20400;-66
2023/01/04 07:58:45;;;;;;;5.07;3.50;;;;;;;6.67;100.00;99994.81;7391648;19;20390;-65
2023/01/04 08:01:16;;;;;;;4.73;3.03;;;;;;;6.67;100.00;100002.50;7388243;19;20787;-64
2023/01/04 08:03:47;;;;;;;3.00;1.57;;;;;;;6.75;100.00;99990.91;7391308;19;20390;-63
2023/01/04 08:06:18;;;;;;;4.87;3.20;;;;;;;6.79;100.00;99997.94;7389017;19;20441;-64
2023/01/04 08:08:48;;;;;;;4.27;2.43;;;;;;;6.83;100.00;99983.56;7391301;19;20392;-63
2023/01/04 08:11:23;;;;;;;6.30;3.47;;;;;;;6.85;100.00;99976.81;7388439;19;20427;-64
2023/01/04 08:13:53;;;;;;;6.20;3.37;;;;;;;6.89;100.00;99984.69;7390745;19;20385;-63
2023/01/04 08:16:26;;;;;;;25.70;13.27;;;;;;;7.01;100.00;99953.59;7388081;19;20485;-63
2023/01/04 08:18:57;;;;;;;5.80;2.93;;;;;;;7.03;100.00;99943.41;7394361;19;20406;-62
2023/01/04 08:21:27;;;;;;;7.20;3.90;;;;;;;7.01;100.00;99939.88;7388229;19;20445;-64
2023/01/04 08:23:56;;;;;;;6.43;3.70;;;;;;;7.04;100.00;99937.47;7390582;19;20420;-63
2023/01/04 08:26:29;;;;;;;5.27;2.77;;;;;;;7.10;100.00;99927.47;7388005;19;20414;-63
2023/01/04 08:28:58;;;;;;;8.20;4.30;;;;;;;7.09;100.00;99928.28;7390028;19;20919;-63
2023/01/04 08:31:29;;;;;;;5.60;3.63;;;;;;;7.11;100.00;100042.09;7387974;19;20441;-63
2023/01/04 08:34:00;;;;;;;7.73;3.93;;;;;;;7.14;100.00;99893.41;7390522;19;20920;-62
2023/01/04 08:36:32;;;;;;;4.20;2.70;;;;;;;7.20;100.00;99882.53;7388072;19;21020;-62
2023/01/04 08:39:03;;;;;;;7.37;4.50;;;;;;;7.21;100.00;99891.09;7389783;19;20425;-62
2023/01/04 08:41:49;;;;;;;8.70;5.47;;;;;;;7.23;100.00;99886.94;7391409;19;20417;-63
2023/01/04 08:44:39;;;;;;;3.50;1.97;;;;;;;7.26;100.00;99897.31;7396546;19;20795;-61
2023/01/04 08:47:08;;;;;;;6.67;3.40;;;;;;;7.29;100.00;99892.31;7394711;19;20421;-61
2023/01/04 08:49:38;;;;;;;9.73;3.40;;;;;;;7.38;100.00;99984.22;7397279;19;20397;-58
2023/01/04 08:52:08;;;;;;;7.43;3.53;;;;;;;7.37;100.00;99849.88;7394341;19;20999;-59
2023/01/04 08:54:37;;;;;;;8.50;3.43;;;;;;;7.46;100.00;99822.81;7398667;19;20433;-61
2023/01/04 08:57:09;;;;;;;5.17;3.27;;;;;;;7.43;100.00;99829.59;7394170;19;20425;-60
2023/01/04 08:59:39;;;;;;;5.50;2.90;;;;;;;7.46;100.00;99826.25;7397654;19;20383;-61
2023/01/04 09:02:21;;;;;;;4.70;2.70;;;;;;;7.49;100.00;99822.94;7393258;19;20436;-62
2023/01/04 09:04:51;;;;;;;5.53;4.00;;;;;;;7.50;100.00;99834.97;7395970;19;20425;-61
2023/01/04 09:07:20;;;;;;;5.20;2.80;;;;;;;7.52;100.00;99820.47;7394468;19;20938;-60
2023/01/04 09:09:50;;;;;;;4.37;1.77;;;;;;;7.61;100.00;99815.72;7396053;19;20396;-62
2023/01/04 09:12:22;;;;;;;5.80;3.17;;;;;;;7.63;100.00;99808.94;7393269;19;20439;-61
2023/01/04 09:14:52;;;;;;;6.60;4.27;;;;;;;7.63;100.00;99808.94;7398941;19;20419;-60
2023/01/04 09:17:21;;;;;;;3.07;1.60;;;;;;;7.66;100.00;99805.63;7397484;19;20455;-60
2023/01/04 09:19:51;;;;;;;4.50;2.70;;;;;;;7.68;100.00;99799.72;7396246;19;20386;-58
2023/01/04 09:22:20;;;;;;;3.63;2.07;;;;;;;7.69;100.00;99793.78;7392838;19;20867;-60
2023/01/04 09:24:50;;;;;;;3.67;2.53;;;;;;;7.72;100.00;99784.44;7394979;19;20428;-59
2023/01/04 09:27:22;;;;;;;2.33;1.97;;;;;;;7.73;100.00;99874.38;7393182;19;20523;-55
2023/01/04 09:29:51;;;;;;;3.57;2.33;;;;;;;7.73;100.00;99752.81;7398712;19;20390;-58
2023/01/04 09:32:21;;;;;;;3.50;2.70;;;;;;;7.76;100.00;99553.53;7393439;19;20430;-56
2023/01/04 09:34:51;;;;;;;3.63;1.77;;;;;;;7.80;100.00;99580.16;7394876;19;20426;-58
2023/01/04 09:37:20;;;;;;;3.30;2.07;;;;;;;7.83;100.00;99591.41;7393500;19;20988;-60
2023/01/04 09:39:50;;;;;;;2.60;2.00;;;;;;;7.89;100.00;99598.44;7395108;19;20931;-59
2023/01/04 09:42:26;;;;;;;3.40;2.63;;;;;;;7.90;100.00;99584.78;7392581;19;20988;-59
2023/01/04 09:45:17;;;;;;;2.70;1.67;;;;;;;7.97;100.00;99581.63;7394032;19;20960;-60
2023/01/04 09:47:58;;;;;;;3.40;2.10;;;;;;;8.01;100.00;99591.97;7394816;19;20415;-60
2023/01/04 09:50:31;;;;;;;2.30;1.53;;;;;;;8.05;100.00;99583.56;7393430;19;20761;-61
2023/01/04 09:53:06;;;;;;;3.33;1.80;;;;;;;8.10;100.00;99561.44;7393032;19;20411;-57
2023/01/04 09:55:39;;;;;;;1.93;1.70;;;;;;;8.09;100.00;99572.56;7391404;19;20415;-60
2023/01/04 09:58:20;;;;;;;1.70;1.37;;;;;;;8.08;100.00;99566.56;7395787;19;20754;-60
2023/01/04 10:00:52;;;;;;;2.13;1.53;;;;;;;8.13;100.00;99571.84;7392179;19;20414;-60
2023/01/04 10:03:25;;;;;;;2.17;1.63;;;;;;;8.14;100.00;99567.59;7393583;19;20464;-60
2023/01/04 10:05:57;;;;;;;6.00;1.43;;;;;;;8.15;100.00;99791.16;7390740;19;21052;-60
2023/01/04 10:08:27;;;;;;;1.93;1.37;;;;;;;8.17;100.00;99516.28;7394991;19;20393;-61
2023/01/04 10:11:06;;;;;;;1.90;1.60;;;;;;;8.19;100.00;99505.22;7391213;19;20397;-58
2023/01/04 10:13:53;;;;;;;2.63;1.57;;;;;;;8.22;100.00;99500.19;7394726;19;20384;-60
2023/01/04 10:16:35;;;;;;;1.70;1.00;;;;;;;8.26;100.00;99536.25;7391710;19;20407;-60
2023/01/04 10:19:35;;;;;;;2.10;1.50;;;;;;;8.28;100.00;99498.63;7395950;19;20787;-60
2023/01/04 10:22:29;;;;;;;2.60;1.93;;;;;;;8.28;100.00;99498.63;7390019;19;20427;-58
2023/01/04 10:25:20;;;;;;;1.73;0.90;;;;;;;8.28;100.00;99490.91;7393452;19;20758;-60
2023/01/04 10:27:59;;;;;;;2.23;1.40;;;;;;;8.29;100.00;99506.38;7393685;19;20411;-60
2023/01/04 10:30:36;;;;;;;6.00;2.00;;;;;;;8.32;100.00;99490.19;7391409;19;20406;-61
2023/01/04 10:33:12;;;;;;;2.10;1.60;;;;;;;8.34;100.00;99479.13;7394150;19;20390;-60
2023/01/04 10:35:43;;;;;;;2.37;1.40;;;;;;;8.37;100.00;99483.50;7390077;19;20486;-60
2023/01/04 10:38:18;;;;;;;1.50;1.00;;;;;;;8.42;100.00;99474.25;7393630;19;20400;-57
2023/01/04 10:40:49;;;;;;;2.07;1.40;;;;;;;8.41;100.00;99480.19;7391132;19;20413;-61
2023/01/04 10:43:32;;;;;;;1.80;0.83;;;;;;;8.45;100.00;99471.75;7392981;19;20395;-61
2023/01/04 10:46:11;;;;;;;2.20;1.70;;;;;;;8.43;100.00;99483.69;7390151;19;20411;-61
2023/01/04 10:48:46;;;;;;;1.80;1.10;;;;;;;8.46;100.00;99473.47;7393694;19;20383;-61
2023/01/04 10:51:18;;;;;;;1.73;0.80;;;;;;;8.48;100.00;99468.41;7386548;19;20429;-62
2023/01/04 10:53:50;;;;;;;1.93;1.30;;;;;;;8.48;100.00;99471.84;7393186;19;20384;-61
2023/01/04 10:56:23;;;;;;;2.10;1.17;;;;;;;8.48;100.00;99459.00;7390402;19;20778;-61
2023/01/04 10:59:01;;;;;;;1.57;1.07;;;;;;;8.49;100.00;99459.84;7395865;19;20925;-61
2023/01/04 11:01:36;;;;;;;1.67;1.10;;;;;;;8.51;100.00;99465.91;7389570;19;20406;-61
2023/01/04 11:04:11;;;;;;;3.10;1.60;;;;;;;8.53;100.00;99458.28;7390964;19;20796;-61
2023/01/04 11:06:43;;;;;;;1.43;1.10;;;;;;;8.58;100.00;99482.41;7390450;19;20430;-60
2023/01/04 11:09:16;;;;;;;1.50;1.13;;;;;;;8.64;100.00;99439.78;7392580;19;20396;-59
2023/01/04 11:11:58;;;;;;;2.90;1.53;;;;;;;8.64;100.00;99444.03;7389095;19;20490;-61
2023/01/04 11:14:28;;;;;;;3.13;1.70;;;;;;;8.64;100.00;99446.59;7392016;19;20972;-61
2023/01/04 11:17:09;;;;;;;1.90;1.33;;;;;;;8.67;100.00;99441.53;7389576;19;20447;-55
2023/01/04 11:19:38;;;;;;;2.17;1.57;;;;;;;8.69;100.00;99446.72;7392081;19;20979;-61
2023/01/04 11:22:14;;;;;;;3.30;1.57;;;;;;;8.72;100.00;99445.13;7389711;19;20429;-60
2023/01/04 11:24:44;;;;;;;3.40;2.07;;;;;;;8.73;100.00;99449.44;7394455;19;20426;-61
2023/01/04 11:27:38;;;;;;;3.73;1.27;;;;;;;8.72;100.00;99452.81;7390154;19;20479;-61
2023/01/04 11:30:16;;;;;;;2.20;1.10;;;;;;;8.73;100.00;99453.72;7391659;19;20398;-61
2023/01/04 11:32:52;;;;;;;1.60;0.73;;;;;;;8.73;100.00;99446.84;7391743;19;20411;-61
2023/01/04 11:35:40;;;;;;;2.13;1.80;;;;;;;8.76;100.00;99456.34;7387925;19;20780;-59
2023/01/04 11:38:16;;;;;;;1.50;1.00;;;;;;;8.77;100.00;99434.97;7391730;19;20393;-61
2023/01/04 11:40:57;;;;;;;1.73;0.90;;;;;;;8.80;100.00;99432.47;7388689;19;20413;-60
2023/01/04 11:43:27;;;;;;;1.60;0.80;;;;;;;8.82;100.00;99427.38;7391193;19;20391;-60
2023/01/04 11:46:03;;;;;;;1.73;1.07;;;;;;;8.83;100.00;99430.00;7387748;19;20451;-61
2023/01/04 11:48:38;;;;;;;2.03;1.40;;;;;;;8.85;100.00;99424.88;7391728;19;20388;-60
2023/01/04 11:51:17;;;;;;;1.90;1.40;;;;;;;8.85;100.00;99428.34;7387958;19;20427;-60
2023/01/04 11:53:47;;;;;;;2.60;1.33;;;;;;;8.87;100.00;99420.66;7391210;19;20391;-62
2023/01/04 11:56:22;;;;;;;2.13;1.53;;;;;;;8.88;100.00;99404.41;7388675;19;20441;-58
2023/01/04 11:59:08;;;;;;;1.90;1.10;;;;;;;8.88;100.00;99420.69;7391157;19;20395;-55
2023/01/04 12:01:40;;;;;;;1.93;1.60;;;;;;;8.89;100.00;99411.28;7388412;19;20407;-61
2023/01/04 12:04:22;;;;;;;2.03;1.70;;;;;;;8.88;100.00;99399.25;7390102;19;20415;-63
2023/01/04 12:06:53;;;;;;;2.00;1.63;;;;;;;8.89;100.00;99413.84;7387294;19;20543;-62
2023/01/04 12:09:23;;;;;;;1.90;1.70;;;;;;;8.90;100.00;99415.59;7390505;19;20386;-63
2023/01/04 12:11:54;;;;;;;4.33;1.60;;;;;;;8.92;100.00;99401.06;7389170;19;20439;-62
2023/01/04 12:14:26;;;;;;;2.00;1.63;;;;;;;8.95;100.00;99405.41;7393019;19;20957;-62
2023/01/04 12:17:01;;;;;;;2.03;1.13;;;;;;;8.97;100.00;99398.63;7385503;19;20513;-62
2023/01/04 12:19:33;;;;;;;2.43;1.90;;;;;;;8.98;100.00;99384.94;7390144;19;20391;-62
2023/01/04 12:22:05;;;;;;;2.20;1.53;;;;;;;8.96;100.00;99387.47;7387686;19;20434;-62
2023/01/04 12:24:35;;;;;;;2.03;1.40;;;;;;;8.99;100.00;99381.53;7389570;19;21013;-62
2023/01/04 12:27:05;;;;;;;4.77;2.00;;;;;;;8.98;100.00;99379.78;7388450;19;20422;-62
2023/01/04 12:29:47;;;;;;;1.60;0.97;;;;;;;8.98;100.00;99380.66;7389775;19;20392;-62
2023/01/04 12:32:47;;;;;;;1.80;1.43;;;;;;;9.01;100.00;99380.75;7387587;19;20778;-62
2023/01/04 12:36:00;;;;;;;2.30;1.20;;;;;;;9.01;100.00;99385.88;7388734;19;20430;-61
2023/01/04 12:39:03;;;;;;;2.83;1.90;;;;;;;9.03;100.00;99389.38;7389717;19;20431;-61
2023/01/04 12:42:20;;;;;;;2.40;1.50;;;;;;;9.07;100.00;99380.03;7388038;19;20419;-62